Time;durP1;ratioP1;P1;durP2;ratioP2;P2;SDS_P1;SDS_P2;PMS_P1;PMS_P2;Temp;Humidity;BMP_temperature;BMP_pressure;BME280_temperature;BME280_humidity;BME280_pressure;Samples;Min_cycle;Max_cycle;Signal;HPM_P1;HPM_P2
2023/01/08 00:01:27;;;;;;;;;;;;;;;10.84;86.36;100371.34;5088487;28;20272;-44
2023/01/08 00:03:53;;;;;;;;;;;;;;;10.85;86.33;100373.06;5090444;28;19923;-44
2023/01/08 00:06:20;;;;;;;;;;;;;;;10.83;86.39;100361.91;5080947;28;19959;-43
2023/01/08 00:08:45;;;;;;;;;;;;;;;10.84;86.18;100368.75;5084802;28;19927;-42
2023/01/08 00:11:10;;;;;;;;;;;;;;;10.85;86.23;100370.50;5086144;28;19923;-43
2023/01/08 00:13:36;;;;;;;;;;;;;;;10.86;86.02;100372.22;5080530;28;20014;-44
2023/01/08 00:16:02;;;;;;;;;;;;;;;10.86;85.84;100382.50;5083942;28;19930;-42
2023/01/08 00:18:27;;;;;;;;;;;;;;;10.87;86.01;100380.00;5078940;28;19963;-45
2023/01/08 00:20:53;;;;;;;;;;;;;;;10.86;85.93;100377.38;5091132;28;19959;-42
2023/01/08 00:23:18;;;;;;;;;;;;;;;10.87;85.82;100376.56;5087824;28;19916;-44
2023/01/08 00:25:44;;;;;;;;;;;;;;;10.86;85.79;100370.56;5082815;28;20426;-44
2023/01/08 00:28:09;;;;;;;;;;;;;;;10.87;85.84;100367.13;5093006;28;19920;-46
2023/01/08 00:30:35;;;;;;;;;;;;;;;10.89;85.76;100365.44;5092568;28;20052;-41
2023/01/08 00:33:00;;;;;;;;;;;;;;;10.88;85.54;100361.16;5083939;28;19993;-43
2023/01/08 00:35:26;;;;;;;;;;;;;;;10.89;85.43;100350.00;5081222;28;20335;-44
2023/01/08 00:37:51;;;;;;;;;;;;;;;10.88;85.42;100344.84;5076454;28;19923;-44
2023/01/08 00:40:16;;;;;;;;;;;;;;;10.87;85.52;100343.13;5082698;28;19916;-45
2023/01/08 00:42:41;;;;;;;;;;;;;;;10.85;85.54;100332.78;5068052;28;19931;-44
2023/01/08 00:45:07;;;;;;;;;;;;;;;10.85;85.44;100329.34;5090655;28;20876;-42
2023/01/08 00:47:32;;;;;;;;;;;;;;;10.84;85.45;100323.34;5085051;28;20331;-43
2023/01/08 00:49:57;;;;;;;;;;;;;;;10.85;85.25;100337.91;5084160;28;19923;-43
2023/01/08 00:52:23;;;;;;;;;;;;;;;10.84;85.49;100333.63;5088016;28;19915;-42
2023/01/08 00:54:48;;;;;;;;;;;;;;;10.83;85.57;100324.19;5082084;28;22198;-45
2023/01/08 00:57:13;;;;;;;;;;;;;;;10.84;85.53;100325.03;5084448;28;19927;-44
2023/01/08 00:59:39;;;;;;;;;;;;;;;10.84;85.59;100330.19;5074862;28;20300;-42
2023/01/08 01:02:04;;;;;;;;;;;;;;;10.82;85.65;100325.03;5078165;28;19920;-42
2023/01/08 01:04:29;;;;;;;;;;;;;;;10.83;85.69;100326.75;5081558;28;19921;-43
2023/01/08 01:06:54;;;;;;;;;;;;;;;10.84;85.73;100328.47;5081661;28;19915;-42
2023/01/08 01:09:19;;;;;;;;;;;;;;;10.82;85.70;100317.31;5092389;27;19946;-44
2023/01/08 01:11:45;;;;;;;;;;;;;;;10.84;85.68;100312.19;5087783;28;19967;-43
2023/01/08 01:14:10;;;;;;;;;;;;;;;10.84;85.86;100314.75;5092903;28;19916;-45
2023/01/08 01:16:35;;;;;;;;;;;;;;;10.85;85.72;100316.47;5084624;28;19918;-44
2023/01/08 01:19:00;;;;;;;;;;;;;;;10.84;85.93;100312.19;5094867;28;20509;-44
2023/01/08 01:21:27;;;;;;;;;;;;;;;10.83;85.89;100303.59;5089923;28;19931;-41
2023/01/08 01:23:54;;;;;;;;;;;;;;;10.83;86.02;100301.03;5094776;28;19999;-44
2023/01/08 01:26:20;;;;;;;;;;;;;;;10.84;85.98;100310.47;5091926;28;19919;-43
2023/01/08 01:28:46;;;;;;;;;;;;;;;10.85;86.05;100313.91;5096460;28;19924;-44
2023/01/08 01:31:12;;;;;;;;;;;;;;;10.84;86.06;100307.03;5088385;28;20372;-44
2023/01/08 01:33:37;;;;;;;;;;;;;;;10.82;85.99;100301.88;5091592;28;19961;-43
2023/01/08 01:36:03;;;;;;;;;;;;;;;10.82;86.07;100299.31;5096171;28;19919;-45
2023/01/08 01:38:29;;;;;;;;;;;;;;;10.83;86.00;100289.88;5095731;28;19927;-44
2023/01/08 01:40:54;;;;;;;;;;;;;;;10.82;86.03;100291.59;5086013;28;19920;-43
2023/01/08 01:43:37;;;;;;;;;;;;;;;10.82;86.13;100295.88;5087481;28;20440;-42
2023/01/08 01:46:05;;;;;;;;;;;;;;;10.83;86.08;100310.47;5093127;28;19955;-42
2023/01/08 01:48:30;;;;;;;;;;;;;;;10.81;86.20;100305.28;5095199;28;19919;-42
2023/01/08 01:50:56;;;;;;;;;;;;;;;10.82;86.20;100316.44;5090674;28;19920;-43
2023/01/08 01:53:32;;;;;;;;;;;;;;;10.81;86.29;100323.28;5096040;28;20042;-43
2023/01/08 01:55:59;;;;;;;;;;;;;;;10.82;86.46;100308.72;5090045;28;20011;-43
2023/01/08 01:58:25;;;;;;;;;;;;;;;10.80;86.50;100307.81;5089564;28;19923;-44
2023/01/08 02:00:52;;;;;;;;;;;;;;;10.79;86.58;100306.94;5095443;28;19919;-41
2023/01/08 02:03:20;;;;;;;;;;;;;;;10.78;86.79;100312.94;5092433;28;19916;-42
2023/01/08 02:05:48;;;;;;;;;;;;;;;10.79;86.69;100311.22;5098998;28;19919;-42
2023/01/08 02:08:20;;;;;;;;;;;;;;;10.78;86.33;100314.66;5088635;28;19925;-41
2023/01/08 02:11:05;;;;;;;;;;;;;;;10.75;86.29;100310.31;5098501;28;20332;-43
2023/01/08 02:13:32;;;;;;;;;;;;;;;10.73;86.00;100309.41;5091003;28;19911;-43
2023/01/08 02:16:02;;;;;;;;;;;;;;;10.72;85.69;100305.09;5092613;28;19912;-42
2023/01/08 02:18:31;;;;;;;;;;;;;;;10.71;83.98;100293.09;5093753;28;19920;-43
2023/01/08 02:21:00;;;;;;;;;;;;;;;10.64;83.02;100280.97;5095859;28;19968;-45
2023/01/08 02:23:43;;;;;;;;;;;;;;;10.60;82.39;100292.88;5091138;28;19915;-42
2023/01/08 02:26:11;;;;;;;;;;;;;;;10.58;82.21;100276.56;5088897;28;19922;-43
2023/01/08 02:28:40;;;;;;;;;;;;;;;10.55;81.77;100281.66;5090595;28;19919;-45
2023/01/08 02:31:06;;;;;;;;;;;;;;;10.53;81.58;100285.91;5091044;28;19969;-42
2023/01/08 02:33:31;;;;;;;;;;;;;;;10.52;81.68;100286.75;5089552;28;19919;-45
2023/01/08 02:36:12;;;;;;;;;;;;;;;10.48;81.29;100284.94;5084443;28;19920;-44
2023/01/08 02:38:45;;;;;;;;;;;;;;;10.46;81.45;100284.06;5086963;28;19931;-42
2023/01/08 02:41:11;;;;;;;;;;;;;;;10.42;80.83;100280.56;5093528;28;19916;-43
2023/01/08 02:43:36;;;;;;;;;;;;;;;10.40;81.16;100289.09;5091637;28;20006;-43
2023/01/08 02:46:03;;;;;;;;;;;;;;;10.38;81.13;100285.63;5094464;28;20018;-42
2023/01/08 02:48:38;;;;;;;;;;;;;;;10.36;81.32;100280.44;5088969;28;19923;-41
2023/01/08 02:51:23;;;;;;;;;;;;;;;10.35;81.18;100290.69;5092949;28;19917;-46
2023/01/08 02:53:50;;;;;;;;;;;;;;;10.34;81.47;100288.97;5088605;28;20386;-41
2023/01/08 02:56:18;;;;;;;;;;;;;;;10.32;81.48;100286.38;5093193;28;20334;-45
2023/01/08 02:58:45;;;;;;;;;;;;;;;10.30;81.70;100285.44;5074043;28;19916;-44
2023/01/08 03:01:11;;;;;;;;;;;;;;;10.28;81.85;100291.41;5092519;28;20402;-43
2023/01/08 03:03:39;;;;;;;;;;;;;;;10.26;82.25;100288.81;5093344;28;19911;-43
2023/01/08 03:06:06;;;;;;;;;;;;;;;10.25;82.61;100286.19;5094124;28;20347;-45
2023/01/08 03:08:34;;;;;;;;;;;;;;;10.23;82.94;100282.69;5086802;28;20769;-44
2023/01/08 03:11:18;;;;;;;;;;;;;;;10.21;83.45;100287.81;5089884;28;20655;-45
2023/01/08 03:13:52;;;;;;;;;;;;;;;10.19;83.75;100277.53;5094539;28;19916;-41
2023/01/08 03:16:21;;;;;;;;;;;;;;;10.17;84.06;100286.88;5090667;28;20006;-41
2023/01/08 03:18:56;;;;;;;;;;;;;;;10.16;83.88;100287.72;5090272;28;19916;-42
2023/01/08 03:21:21;;;;;;;;;;;;;;;10.14;84.40;100278.25;5096126;28;19959;-43
2023/01/08 03:23:47;;;;;;;;;;;;;;;10.14;84.41;100275.69;5102798;28;19974;-42
2023/01/08 03:26:15;;;;;;;;;;;;;;;10.15;84.64;100286.00;5099680;28;19923;-44
2023/01/08 03:28:44;;;;;;;;;;;;;;;10.14;84.53;100274.00;5094902;28;20372;-42
2023/01/08 03:31:10;;;;;;;;;;;;;;;10.13;84.69;100276.50;5090174;28;19950;-43
2023/01/08 03:33:35;;;;;;;;;;;;;;;10.11;84.56;100279.03;5081429;28;19923;-42
2023/01/08 03:36:02;;;;;;;;;;;;;;;10.10;84.64;100273.88;5100173;28;19965;-44
2023/01/08 03:38:32;;;;;;;;;;;;;;;10.09;84.72;100264.44;5094275;28;19955;-44
2023/01/08 03:41:04;;;;;;;;;;;;;;;10.08;84.97;100271.28;5097442;28;19911;-44
2023/01/08 03:43:29;;;;;;;;;;;;;;;10.08;84.88;100273.00;5098681;28;20399;-45
2023/01/08 03:46:00;;;;;;;;;;;;;;;10.06;84.71;100272.06;5089379;28;19959;-41
2023/01/08 03:48:27;;;;;;;;;;;;;;;10.04;84.66;100268.63;5097846;28;19919;-44
2023/01/08 03:50:52;;;;;;;;;;;;;;;10.03;84.56;100270.31;5084854;28;19920;-44
2023/01/08 03:53:17;;;;;;;;;;;;;;;10.01;84.53;100258.28;5103483;28;19916;-43
2023/01/08 03:55:43;;;;;;;;;;;;;;;10.01;84.61;100255.69;5094137;28;19955;-41
2023/01/08 03:58:08;;;;;;;;;;;;;;;10.00;84.78;100257.41;5095447;28;19923;-42
2023/01/08 04:00:33;;;;;;;;;;;;;;;10.00;84.77;100249.69;5105295;27;20353;-43
2023/01/08 04:02:58;;;;;;;;;;;;;;;10.02;85.05;100250.63;5085585;28;19998;-43
2023/01/08 04:05:24;;;;;;;;;;;;;;;10.00;85.02;100248.84;5088107;28;19958;-41
2023/01/08 04:07:49;;;;;;;;;;;;;;;10.01;85.02;100248.88;5089842;28;19926;-43
2023/01/08 04:10:14;;;;;;;;;;;;;;;10.01;85.17;100250.56;5089642;28;19934;-42
2023/01/08 04:12:41;;;;;;;;;;;;;;;10.00;85.20;100253.97;5089727;28;20410;-44
2023/01/08 04:15:07;;;;;;;;;;;;;;;9.99;85.14;100237.69;5093152;28;19923;-42
2023/01/08 04:17:32;;;;;;;;;;;;;;;9.98;85.17;100224.84;5097921;28;20038;-43
2023/01/08 04:19:57;;;;;;;;;;;;;;;9.96;85.05;100226.50;5100614;28;20372;-42
2023/01/08 04:22:22;;;;;;;;;;;;;;;9.95;85.05;100225.66;5090250;28;20392;-45
2023/01/08 04:24:48;;;;;;;;;;;;;;;9.95;85.26;100228.22;5096256;28;19924;-46
2023/01/08 04:27:13;;;;;;;;;;;;;;;9.94;85.15;100223.88;5093741;28;19916;-44
2023/01/08 04:29:38;;;;;;;;;;;;;;;9.95;85.28;100235.94;5090935;28;20000;-43
2023/01/08 04:32:03;;;;;;;;;;;;;;;9.94;85.31;100240.16;5090171;28;19920;-46
2023/01/08 04:34:29;;;;;;;;;;;;;;;9.94;85.37;100239.31;5090164;28;19994;-45
2023/01/08 04:36:55;;;;;;;;;;;;;;;9.91;85.49;100223.84;5088865;28;19982;-45
2023/01/08 04:39:20;;;;;;;;;;;;;;;9.90;85.64;100224.69;5090636;28;19923;-44
2023/01/08 04:41:45;;;;;;;;;;;;;;;9.89;85.92;100230.66;5088494;28;20028;-45
2023/01/08 04:44:10;;;;;;;;;;;;;;;9.87;85.79;100222.91;5091284;28;19923;-44
2023/01/08 04:46:36;;;;;;;;;;;;;;;9.86;85.93;100226.31;5090527;28;19924;-44
2023/01/08 04:49:01;;;;;;;;;;;;;;;9.86;86.00;100215.19;5084658;28;20384;-43
2023/01/08 04:51:27;;;;;;;;;;;;;;;9.87;86.01;100214.34;5093978;28;19912;-42
2023/01/08 04:53:52;;;;;;;;;;;;;;;9.86;85.97;100217.75;5087128;28;19968;-42
2023/01/08 04:56:17;;;;;;;;;;;;;;;9.86;86.04;100221.19;5097190;28;19972;-44
2023/01/08 04:58:42;;;;;;;;;;;;;;;9.87;85.93;100212.63;5094894;28;20006;-42
2023/01/08 05:01:28;;;;;;;;;;;;;;;9.87;85.71;100222.91;5098459;28;20028;-42
2023/01/08 05:03:54;;;;;;;;;;;;;;;9.86;85.84;100226.31;5070954;28;19922;-43
2023/01/08 05:06:19;;;;;;;;;;;;;;;9.86;85.62;100233.16;5095643;28;20003;-43
2023/01/08 05:08:44;;;;;;;;;;;;;;;9.84;85.43;100228.00;5092571;28;20010;-43
2023/01/08 05:11:10;;;;;;;;;;;;;;;9.84;85.43;100219.44;5088695;28;19915;-42
2023/01/08 05:13:35;;;;;;;;;;;;;;;9.84;85.41;100217.72;5093076;28;19923;-42
2023/01/08 05:16:00;;;;;;;;;;;;;;;9.84;85.25;100216.84;5093458;28;20247;-45
2023/01/08 05:18:27;;;;;;;;;;;;;;;9.84;85.25;100228.00;5097575;28;19920;-44
2023/01/08 05:20:52;;;;;;;;;;;;;;;9.84;85.00;100216.84;5089150;28;19916;-41
2023/01/08 05:23:17;;;;;;;;;;;;;;;9.84;84.90;100206.59;5098214;28;19951;-45
2023/01/08 05:25:42;;;;;;;;;;;;;;;9.83;84.74;100212.56;5108480;27;19959;-43
2023/01/08 05:28:08;;;;;;;;;;;;;;;9.82;84.67;100203.09;5095861;28;19920;-42
2023/01/08 05:30:33;;;;;;;;;;;;;;;9.82;84.44;100201.38;5094303;28;19969;-41
2023/01/08 05:32:59;;;;;;;;;;;;;;;9.81;84.00;100201.38;5095773;28;20054;-44
2023/01/08 05:35:24;;;;;;;;;;;;;;;9.80;83.82;100200.50;5085871;28;19974;-41
2023/01/08 05:37:50;;;;;;;;;;;;;;;9.81;83.39;100201.38;5086973;28;19926;-44
2023/01/08 05:40:15;;;;;;;;;;;;;;;9.80;83.10;100197.06;5066312;28;20253;-44
2023/01/08 05:42:40;;;;;;;;;;;;;;;9.80;82.79;100189.38;5082768;28;19959;-46
2023/01/08 05:45:06;;;;;;;;;;;;;;;9.79;82.51;100192.78;5081257;28;19920;-41
2023/01/08 05:47:31;;;;;;;;;;;;;;;9.77;82.24;100197.00;5083277;28;19963;-41
2023/01/08 05:49:56;;;;;;;;;;;;;;;9.74;81.97;100199.50;5083145;28;19971;-42
2023/01/08 05:52:22;;;;;;;;;;;;;;;9.75;81.93;100198.69;5085090;28;20007;-43
2023/01/08 05:54:47;;;;;;;;;;;;;;;9.72;81.74;100196.06;5082533;28;20408;-44
2023/01/08 05:57:12;;;;;;;;;;;;;;;9.71;81.33;100195.19;5074070;28;19923;-43
2023/01/08 05:59:37;;;;;;;;;;;;;;;9.69;80.75;100191.72;5085335;28;19961;-44
2023/01/08 06:02:03;;;;;;;;;;;;;;;9.68;80.79;100201.13;5084797;28;19922;-44
2023/01/08 06:04:28;;;;;;;;;;;;;;;9.67;80.71;100209.66;5085770;28;20015;-43
2023/01/08 06:06:53;;;;;;;;;;;;;;;9.67;80.65;100201.97;5083883;28;19966;-44
2023/01/08 06:09:18;;;;;;;;;;;;;;;9.66;80.43;100209.63;5083527;28;19939;-42
2023/01/08 06:11:44;;;;;;;;;;;;;;;9.63;79.56;100214.69;5084232;28;19930;-43
2023/01/08 06:14:09;;;;;;;;;;;;;;;9.60;80.06;100212.94;5081453;28;20003;-41
2023/01/08 06:16:34;;;;;;;;;;;;;;;9.60;79.91;100225.75;5083103;28;19920;-42
2023/01/08 06:18:59;;;;;;;;;;;;;;;9.57;80.09;100217.97;5081976;28;20015;-43
2023/01/08 06:21:25;;;;;;;;;;;;;;;9.57;79.65;100227.38;5082449;28;19927;-44
2023/01/08 06:23:50;;;;;;;;;;;;;;;9.53;79.30;100229.03;5084595;28;19920;-43
2023/01/08 06:26:15;;;;;;;;;;;;;;;9.52;79.34;100226.41;5085753;28;19912;-44
2023/01/08 06:28:40;;;;;;;;;;;;;;;9.51;79.46;100238.38;5097109;28;19928;-43
2023/01/08 06:31:05;;;;;;;;;;;;;;;9.48;79.32;100238.34;5084398;28;19924;-43
2023/01/08 06:33:31;;;;;;;;;;;;;;;9.48;79.38;100247.72;5082769;28;19920;-46
2023/01/08 06:36:01;;;;;;;;;;;;;;;9.45;79.42;100250.22;5097069;28;19912;-45
2023/01/08 06:38:26;;;;;;;;;;;;;;;9.45;79.33;100250.22;5090725;28;20370;-42
2023/01/08 06:40:51;;;;;;;;;;;;;;;9.43;79.30;100252.75;5095833;28;19959;-42
2023/01/08 06:43:17;;;;;;;;;;;;;;;9.43;79.00;100251.88;5091096;28;19920;-45
2023/01/08 06:45:42;;;;;;;;;;;;;;;9.40;78.71;100250.09;5095248;28;19926;-43
2023/01/08 06:48:08;;;;;;;;;;;;;;;9.39;78.82;100250.94;5089796;28;19920;-42
2023/01/08 06:50:33;;;;;;;;;;;;;;;9.37;78.87;100250.91;5095371;28;19966;-46
2023/01/08 06:52:59;;;;;;;;;;;;;;;9.34;78.72;100249.97;5096548;28;19920;-43
2023/01/08 06:55:24;;;;;;;;;;;;;;;9.32;78.95;100249.06;5080041;28;19924;-42
2023/01/08 06:57:56;;;;;;;;;;;;;;;9.31;78.65;100257.59;5093778;28;19926;-44
2023/01/08 07:00:22;;;;;;;;;;;;;;;9.29;78.77;100261.84;5095522;28;19912;-41
2023/01/08 07:02:48;;;;;;;;;;;;;;;9.29;78.78;100261.84;5092686;28;21244;-43
2023/01/08 07:05:13;;;;;;;;;;;;;;;9.28;78.69;100257.50;5093013;28;19920;-42
2023/01/08 07:07:39;;;;;;;;;;;;;;;9.26;78.65;100246.34;5102070;28;19959;-42
2023/01/08 07:10:04;;;;;;;;;;;;;;;9.24;78.90;100250.59;5106006;27;20027;-43
2023/01/08 07:12:29;;;;;;;;;;;;;;;9.23;78.79;100248.88;5098891;28;20019;-43
2023/01/08 07:14:55;;;;;;;;;;;;;;;9.22;78.66;100247.09;5097838;28;19927;-42
2023/01/08 07:17:20;;;;;;;;;;;;;;;9.22;78.56;100239.41;5095516;28;20411;-42
2023/01/08 07:19:45;;;;;;;;;;;;;;;9.20;78.59;100231.69;5095696;28;19942;-44
2023/01/08 07:22:10;;;;;;;;;;;;;;;9.19;78.65;100231.66;5089637;28;19974;-45
2023/01/08 07:24:35;;;;;;;;;;;;;;;9.16;78.39;100229.00;5091960;28;19943;-44
2023/01/08 07:27:01;;;;;;;;;;;;;;;9.13;78.50;100222.97;5097275;28;19916;-45
2023/01/08 07:29:26;;;;;;;;;;;;;;;9.10;78.23;100235.75;5092444;28;19923;-44
2023/01/08 07:31:51;;;;;;;;;;;;;;;9.09;78.53;100234.00;5088249;28;19920;-43
2023/01/08 07:34:17;;;;;;;;;;;;;;;9.09;78.65;100233.13;5093710;28;20010;-45
2023/01/08 07:36:42;;;;;;;;;;;;;;;9.09;78.46;100238.25;5090721;28;19927;-45
2023/01/08 07:39:07;;;;;;;;;;;;;;;9.05;78.23;100242.47;5086456;28;19920;-45
2023/01/08 07:41:32;;;;;;;;;;;;;;;9.03;78.07;100244.09;5081133;28;20333;-44
2023/01/08 07:43:58;;;;;;;;;;;;;;;9.02;78.32;100241.50;5096950;28;20570;-43
2023/01/08 07:46:23;;;;;;;;;;;;;;;9.01;78.14;100245.78;5097373;28;19973;-42
2023/01/08 07:48:48;;;;;;;;;;;;;;;9.01;78.02;100244.91;5097724;28;19920;-43
2023/01/08 07:51:13;;;;;;;;;;;;;;;8.99;77.80;100246.59;5092169;28;20056;-42
2023/01/08 07:53:38;;;;;;;;;;;;;;;8.96;77.64;100237.09;5085956;28;20440;-43
2023/01/08 07:56:05;;;;;;;;;;;;;;;8.96;77.97;100236.22;5087803;28;19915;-43
2023/01/08 07:58:31;;;;;;;;;;;;;;;8.95;77.63;100245.63;5093047;28;19915;-42
2023/01/08 08:00:56;;;;;;;;;;;;;;;8.94;77.88;100233.63;5095995;28;19923;-42
2023/01/08 08:03:22;;;;;;;;;;;;;;;8.95;77.66;100242.19;5089886;28;19919;-43
2023/01/08 08:05:47;;;;;;;;;;;;;;;8.93;77.67;100236.19;5087845;28;20373;-44
2023/01/08 08:08:12;;;;;;;;;;;;;;;8.91;77.77;100236.09;5091226;28;20305;-42
2023/01/08 08:10:38;;;;;;;;;;;;;;;8.91;78.09;100233.53;5088722;28;19912;-43
2023/01/08 08:13:04;;;;;;;;;;;;;;;8.93;77.96;100231.03;5102874;27;19924;-44
2023/01/08 08:15:29;;;;;;;;;;;;;;;8.92;78.12;100225.06;5091640;28;19999;-42
2023/01/08 08:17:55;;;;;;;;;;;;;;;8.91;78.03;100222.44;5085299;28;20479;-41
2023/01/08 08:20:20;;;;;;;;;;;;;;;8.91;78.39;100212.16;5093931;28;20544;-42
2023/01/08 08:22:45;;;;;;;;;;;;;;;8.92;78.44;100212.22;5092527;28;19924;-42
2023/01/08 08:25:13;;;;;;;;;;;;;;;8.95;78.63;100201.16;5090995;28;19927;-45
2023/01/08 08:27:39;;;;;;;;;;;;;;;8.95;78.63;100188.34;5091789;28;19930;-42
2023/01/08 08:30:04;;;;;;;;;;;;;;;8.96;78.80;100196.06;5090707;28;19925;-43
2023/01/08 08:32:30;;;;;;;;;;;;;;;8.97;78.85;100192.66;5091251;28;20448;-45
2023/01/08 08:34:55;;;;;;;;;;;;;;;8.99;78.90;100203.84;5092155;28;19919;-44
2023/01/08 08:37:20;;;;;;;;;;;;;;;9.01;79.13;100203.88;5087774;28;19935;-44
2023/01/08 08:39:45;;;;;;;;;;;;;;;9.04;79.33;100189.44;5094674;28;19934;-44
2023/01/08 08:42:11;;;;;;;;;;;;;;;9.07;79.35;100194.63;5091921;28;19951;-44
2023/01/08 08:44:36;;;;;;;;;;;;;;;9.07;79.26;100198.91;5066060;28;20003;-42
2023/01/08 08:47:01;;;;;;;;;;;;;;;9.09;79.60;100199.78;5076381;28;20026;-41
2023/01/08 08:49:26;;;;;;;;;;;;;;;9.09;79.57;100192.97;5089141;28;19955;-44
2023/01/08 08:51:52;;;;;;;;;;;;;;;9.11;80.04;100193.88;5095104;28;20348;-44
2023/01/08 08:54:17;;;;;;;;;;;;;;;9.15;80.11;100184.53;5094728;28;20270;-40
2023/01/08 08:56:42;;;;;;;;;;;;;;;9.16;79.98;100178.59;5091974;28;20414;-42
2023/01/08 08:59:10;;;;;;;;;;;;;;;9.17;80.06;100185.47;5089114;28;19923;-43
2023/01/08 09:01:35;;;;;;;;;;;;;;;9.22;80.28;100180.41;5088576;28;20382;-43
2023/01/08 09:04:01;;;;;;;;;;;;;;;9.24;80.27;100181.34;5071592;28;20018;-41
2023/01/08 09:06:26;;;;;;;;;;;;;;;9.24;80.02;100171.94;5093737;28;20006;-42
2023/01/08 09:08:53;;;;;;;;;;;;;;;9.23;80.22;100184.75;5093920;28;19935;-40
2023/01/08 09:11:19;;;;;;;;;;;;;;;9.23;80.14;100182.16;5091509;28;20389;-41
2023/01/08 09:13:44;;;;;;;;;;;;;;;9.20;80.14;100180.38;5090738;28;20007;-42
2023/01/08 09:16:09;;;;;;;;;;;;;;;9.20;80.15;100184.66;5092110;28;19920;-39
2023/01/08 09:18:34;;;;;;;;;;;;;;;9.17;80.30;100185.47;5096577;28;19915;-40
2023/01/08 09:21:03;;;;;;;;;;;;;;;9.16;80.14;100187.97;5091101;28;19920;-39
2023/01/08 09:23:28;;;;;;;;;;;;;;;9.13;80.41;100199.91;5088834;28;19957;-40
2023/01/08 09:26:03;;;;;;;;;;;;;;;9.13;80.56;100189.66;5093670;28;19967;-39
2023/01/08 09:28:28;;;;;;;;;;;;;;;9.12;80.67;100195.59;5094247;28;19923;-41
2023/01/08 09:30:54;;;;;;;;;;;;;;;9.10;80.60;100189.59;5093460;28;19920;-39
2023/01/08 09:33:19;;;;;;;;;;;;;;;9.09;80.61;100182.69;5091744;28;19916;-39
2023/01/08 09:35:44;;;;;;;;;;;;;;;9.08;80.84;100191.22;5096717;28;19954;-40
2023/01/08 09:38:09;;;;;;;;;;;;;;;9.06;80.62;100182.66;5088533;28;20303;-39
2023/01/08 09:40:38;;;;;;;;;;;;;;;9.06;80.90;100174.09;5087337;28;20348;-45
2023/01/08 09:43:04;;;;;;;;;;;;;;;9.05;80.97;100168.09;5091301;28;19920;-40
2023/01/08 09:45:31;;;;;;;;;;;;;;;9.04;80.86;100168.94;5093155;28;19961;-40
2023/01/08 09:47:59;;;;;;;;;;;;;;;9.07;81.10;100173.25;5089225;28;20431;-39
2023/01/08 09:50:26;;;;;;;;;;;;;;;9.05;80.93;100169.78;5082294;28;21102;-41
2023/01/08 09:52:52;;;;;;;;;;;;;;;9.06;81.27;100169.81;5080362;28;19913;-40
2023/01/08 09:55:17;;;;;;;;;;;;;;;9.04;81.19;100162.91;5096788;28;19916;-41
2023/01/08 09:57:43;;;;;;;;;;;;;;;9.06;81.25;100174.09;5097544;28;19923;-42
2023/01/08 10:00:12;;;;;;;;;;;;;;;9.09;81.17;100166.44;5087392;28;20291;-40
2023/01/08 10:02:38;;;;;;;;;;;;;;;9.11;81.24;100167.38;5082209;28;20361;-39
2023/01/08 10:05:09;;;;;;;;;;;;;;;9.11;81.51;100157.97;5092066;28;20007;-44
2023/01/08 10:07:34;;;;;;;;;;;;;;;9.14;81.53;100165.72;5087652;28;20019;-38
2023/01/08 10:10:00;;;;;;;;;;;;;;;9.17;81.45;100164.94;5088526;28;20046;-41
2023/01/08 10:12:25;;;;;;;;;;;;;;;9.16;81.28;100152.06;5088494;28;19912;-41
2023/01/08 10:14:52;;;;;;;;;;;;;;;9.15;81.57;100156.31;5092540;28;19957;-39
2023/01/08 10:17:35;;;;;;;;;;;;;;;9.16;81.59;100144.38;5085417;28;19916;-39
2023/01/08 10:20:01;;;;;;;;;;;;;;;9.17;81.89;100143.56;5095010;28;20903;-41
2023/01/08 10:22:30;;;;;;;;;;;;;;;9.15;81.96;100133.25;5082939;28;19923;-42
2023/01/08 10:25:05;;;;;;;;;;;;;;;9.18;81.97;100135.03;5084648;28;20356;-39
2023/01/08 10:27:30;;;;;;;;;;;;;;;9.20;82.17;100128.22;5092550;28;20352;-50
2023/01/08 10:30:03;;;;;;;;;;;;;;;9.21;82.25;100127.38;5089849;28;19926;-49
2023/01/08 10:32:30;;;;;;;;;;;;;;;9.20;82.30;100121.38;5091275;28;20499;-53
2023/01/08 10:34:56;;;;;;;;;;;;;;;9.29;83.22;100116.47;5089313;28;19912;-48
2023/01/08 10:37:25;;;;;;;;;;;;;;;9.47;82.76;100116.00;5089337;28;19916;-52
2023/01/08 10:39:50;;;;;;;;;;;;;;;9.60;82.46;100122.22;5084650;28;19970;-51
2023/01/08 10:42:17;;;;;;;;;;;;;;;9.67;81.90;100119.81;5091304;28;19963;-47
2023/01/08 10:44:55;;;;;;;;;;;;;;;9.79;81.98;100113.19;5088477;28;19912;-53
2023/01/08 10:47:21;;;;;;;;;;;;;;;10.07;81.92;100104.28;5094912;28;19911;-53
2023/01/08 10:49:46;;;;;;;;;;;;;;;10.39;80.79;100098.03;5093639;28;19943;-51
2023/01/08 10:52:38;;;;;;;;;;;;;;;10.65;80.19;100098.44;5092187;28;19916;-53
2023/01/08 10:55:20;;;;;;;;;;;;;;;10.94;79.16;100090.31;5085663;28;19912;-53
2023/01/08 10:57:52;;;;;;;;;;;;;;;11.31;78.61;100091.66;5088251;28;19912;-54
2023/01/08 11:00:21;;;;;;;;;;;;;;;11.68;77.29;100092.94;5090348;28;20385;-50
2023/01/08 11:02:49;;;;;;;;;;;;;;;12.01;76.42;100087.34;5086598;28;19916;-50
2023/01/08 11:05:14;;;;;;;;;;;;;;;12.23;74.35;100083.22;5097946;28;20401;-51
2023/01/08 11:07:40;;;;;;;;;;;;;;;12.26;74.89;100078.13;5089901;28;19915;-53
2023/01/08 11:10:05;;;;;;;;;;;;;;;12.23;72.50;100082.38;5100049;28;19920;-53
2023/01/08 11:12:31;;;;;;;;;;;;;;;12.21;72.56;100077.22;5069388;28;20015;-53
2023/01/08 11:14:56;;;;;;;;;;;;;;;12.17;72.18;100072.88;5095566;28;19912;-50
2023/01/08 11:17:24;;;;;;;;;;;;;;;12.14;72.85;100064.25;5092102;28;19927;-49
2023/01/08 11:19:49;;;;;;;;;;;;;;;12.10;73.05;100065.06;5096774;28;20386;-42
2023/01/08 11:22:18;;;;;;;;;;;;;;;12.07;72.54;100065.91;5091148;28;20014;-54
2023/01/08 11:24:45;;;;;;;;;;;;;;;12.03;72.62;100062.44;5087872;28;19922;-48
2023/01/08 11:27:29;;;;;;;;;;;;;;;12.01;72.96;100055.53;5088706;27;19927;-53
2023/01/08 11:30:04;;;;;;;;;;;;;;;11.98;72.51;100048.66;5091198;28;20303;-53
2023/01/08 11:32:36;;;;;;;;;;;;;;;11.93;71.77;100036.56;5086381;28;19927;-49
2023/01/08 11:35:07;;;;;;;;;;;;;;;11.90;72.08;100033.97;5079573;28;20364;-52
2023/01/08 11:37:34;;;;;;;;;;;;;;;11.86;72.18;100033.06;5086472;28;19916;-52
2023/01/08 11:40:00;;;;;;;;;;;;;;;11.85;71.97;100043.38;5084817;28;20276;-51
2023/01/08 11:42:34;;;;;;;;;;;;;;;11.81;71.51;100040.75;5092647;28;19912;-53
2023/01/08 11:45:28;;;;;;;;;;;;;;;11.77;71.72;100027.81;5084820;28;19959;-50
2023/01/08 11:48:12;;;;;;;;;;;;;;;11.75;71.72;100032.94;5006125;28;19921;-47
2023/01/08 11:50:56;;;;;;;;;;;;;;;11.76;71.97;100026.06;5095685;28;19922;-53
2023/01/08 11:53:21;;;;;;;;;;;;;;;11.75;71.89;100016.63;5095982;28;20011;-53
2023/01/08 11:55:46;;;;;;;;;;;;;;;11.72;71.63;100014.88;5091437;28;20002;-52
2023/01/08 11:58:21;;;;;;;;;;;;;;;11.71;71.79;99994.25;5100522;28;19911;-52
2023/01/08 12:00:53;;;;;;;;;;;;;;;11.73;71.70;100002.88;5096727;28;19915;-53
2023/01/08 12:03:21;;;;;;;;;;;;;;;11.73;71.59;100005.44;5093301;28;19995;-54
2023/01/08 12:05:46;;;;;;;;;;;;;;;11.73;71.66;99998.59;5089159;28;19916;-50
2023/01/08 12:08:18;;;;;;;;;;;;;;;11.75;71.16;99998.59;5095494;28;19919;-52
2023/01/08 12:10:44;;;;;;;;;;;;;;;11.75;70.93;99999.44;5087960;28;20379;-54
2023/01/08 12:13:27;;;;;;;;;;;;;;;11.74;70.53;100004.59;5088196;28;20015;-54
2023/01/08 12:16:11;;;;;;;;;;;;;;;11.65;69.83;100002.81;5086805;28;19916;-52
2023/01/08 12:18:45;;;;;;;;;;;;;;;11.60;69.59;99995.88;5088451;28;19912;-54
2023/01/08 12:21:19;;;;;;;;;;;;;;;11.55;70.36;99995.84;5084015;28;19912;-54
2023/01/08 12:24:03;;;;;;;;;;;;;;;11.54;70.77;99987.25;5097593;28;20380;-46
2023/01/08 12:26:47;;;;;;;;;;;;;;;11.52;71.16;99994.06;5092164;28;20276;-53
2023/01/08 12:29:18;;;;;;;;;;;;;;;11.51;70.84;99983.75;5087374;28;19916;-52
2023/01/08 12:31:43;;;;;;;;;;;;;;;11.47;70.39;99989.75;5092624;28;19911;-48
2023/01/08 12:34:11;;;;;;;;;;;;;;;11.42;70.71;99984.53;5090680;28;20276;-52
2023/01/08 12:36:41;;;;;;;;;;;;;;;11.38;70.37;99987.06;5090342;28;19911;-52
2023/01/08 12:39:18;;;;;;;;;;;;;;;11.35;70.61;99980.19;5092435;28;19916;-53
2023/01/08 12:41:44;;;;;;;;;;;;;;;11.33;70.35;99984.44;5095995;28;19912;-48
2023/01/08 12:44:11;;;;;;;;;;;;;;;11.32;70.85;99981.84;5083940;28;19919;-54